createdAt,value
2024-05-09T00:10:41.539Z,1023.75
2024-05-09T00:11:41.093Z,1023.68
2024-05-09T00:12:40.942Z,1023.69
2024-05-09T00:13:40.965Z,1023.68
2024-05-09T00:14:41.147Z,1023.70
2024-05-09T00:15:41.017Z,1023.71
2024-05-09T00:16:41.407Z,1023.68
2024-05-09T00:17:41.522Z,1023.70
2024-05-09T00:18:41.168Z,1023.70
2024-05-09T00:19:41.129Z,1023.73
2024-05-09T00:20:41.598Z,1023.71
2024-05-09T00:21:41.191Z,1023.66
2024-05-09T00:22:41.230Z,1023.65
2024-05-09T00:23:41.763Z,1023.66
2024-05-09T00:24:41.290Z,1023.62
2024-05-09T00:25:41.329Z,1023.66
2024-05-09T00:26:41.433Z,1023.66
2024-05-09T00:27:41.376Z,1023.63
2024-05-09T00:28:41.406Z,1023.63
2024-05-09T00:29:41.431Z,1023.55
2024-05-09T00:30:41.806Z,1023.57
2024-05-09T00:31:41.492Z,1023.55
2024-05-09T00:32:41.920Z,1023.56
2024-05-09T00:33:41.790Z,1023.53
2024-05-09T00:34:41.587Z,1023.53
2024-05-09T00:35:41.774Z,1023.54
2024-05-09T00:36:41.638Z,1023.53
2024-05-09T00:37:42.455Z,1023.54
2024-05-09T00:38:41.761Z,1023.52
2024-05-09T00:39:41.730Z,1023.51
2024-05-09T00:40:43.408Z,1023.52
2024-05-09T00:41:41.822Z,1023.50
2024-05-09T00:42:41.830Z,1023.54
2024-05-09T00:43:42.191Z,1023.56
2024-05-09T00:44:41.893Z,1023.55
2024-05-09T00:45:41.936Z,1023.54
2024-05-09T00:46:41.955Z,1023.54
2024-05-09T00:47:42.201Z,1023.58
2024-05-09T00:48:42.071Z,1023.57
2024-05-09T00:49:42.579Z,1023.54
2024-05-09T00:50:42.399Z,1023.58
2024-05-09T00:51:42.132Z,1023.58
2024-05-09T00:52:42.160Z,1023.58
2024-05-09T00:53:42.183Z,1023.58
2024-05-09T00:54:42.307Z,1023.58
2024-05-09T00:55:42.242Z,1023.58
2024-05-09T00:56:42.249Z,1023.60
2024-05-09T00:57:42.278Z,1023.62
2024-05-09T00:58:42.385Z,1023.62
2024-05-09T01:00:42.373Z,1023.61
2024-05-09T01:01:42.991Z,1023.61
2024-05-09T01:02:42.504Z,1023.59
2024-05-09T01:03:42.569Z,1023.58
2024-05-09T01:04:42.561Z,1023.60
2024-05-09T01:05:43.211Z,1023.57
2024-05-09T01:06:42.548Z,1023.58
2024-05-09T01:07:42.633Z,1023.56
2024-05-09T01:08:42.939Z,1023.55
2024-05-09T01:09:42.647Z,1023.52
2024-05-09T01:10:45.079Z,1023.52
2024-05-09T01:11:42.810Z,1023.56
2024-05-09T01:12:42.730Z,1023.55
2024-05-09T01:13:42.777Z,1023.57
2024-05-09T01:14:42.809Z,1023.51
2024-05-09T01:15:43.121Z,1023.57
2024-05-09T01:16:42.907Z,1023.55
2024-05-09T01:17:43.101Z,1023.58
2024-05-09T01:18:43.051Z,1023.57
2024-05-09T01:19:43.130Z,1023.59
2024-05-09T01:20:44.905Z,1023.59
2024-05-09T01:21:43.028Z,1023.56
2024-05-09T01:22:43.379Z,1023.58
2024-05-09T01:23:43.120Z,1023.57
2024-05-09T01:24:43.099Z,1023.59
2024-05-09T01:25:43.335Z,1023.54
2024-05-09T01:26:43.170Z,1023.53
2024-05-09T01:27:43.191Z,1023.55
2024-05-09T01:28:43.312Z,1023.58
2024-05-09T01:29:43.516Z,1023.54
2024-05-09T01:30:43.444Z,1023.52
2024-05-09T01:31:43.469Z,1023.55
2024-05-09T01:32:43.625Z,1023.54
2024-05-09T01:33:43.604Z,1023.54
2024-05-09T01:34:43.415Z,1023.55
2024-05-09T01:35:43.583Z,1023.53
2024-05-09T01:37:43.761Z,1023.51
2024-05-09T01:38:43.576Z,1023.47
2024-05-09T01:39:43.566Z,1023.49
2024-05-09T01:40:43.630Z,1023.46
2024-05-09T01:41:43.636Z,1023.47
2024-05-09T01:42:43.655Z,1023.44
2024-05-09T01:43:43.733Z,1023.48
2024-05-09T01:44:43.967Z,1023.45
2024-05-09T01:45:43.778Z,1023.47
2024-05-09T01:46:43.864Z,1023.46
2024-05-09T01:47:43.903Z,1023.45
2024-05-09T01:48:43.940Z,1023.45
2024-05-09T01:49:43.985Z,1023.44
2024-05-09T01:50:44.011Z,1023.44
2024-05-09T01:51:44.329Z,1023.45
2024-05-09T01:52:44.042Z,1023.42
2024-05-09T01:53:44.088Z,1023.43
2024-05-09T01:54:44.034Z,1023.38
2024-05-09T01:55:44.213Z,1023.43
2024-05-09T01:56:44.093Z,1023.39
2024-05-09T01:57:44.118Z,1023.40
2024-05-09T01:58:44.501Z,1023.40
2024-05-09T01:59:44.171Z,1023.38
2024-05-09T02:00:44.323Z,1023.40
2024-05-09T02:01:56.306Z,1023.38
2024-05-09T02:02:44.398Z,1023.41
2024-05-09T02:03:44.485Z,1023.38
2024-05-09T02:04:44.446Z,1023.33
2024-05-09T02:05:45.112Z,1023.34
2024-05-09T02:06:44.386Z,1023.37
2024-05-09T02:07:44.474Z,1023.34
2024-05-09T02:08:44.479Z,1023.33
2024-05-09T02:09:44.482Z,1023.34
2024-05-09T02:10:44.873Z,1023.33
2024-05-09T02:11:44.620Z,1023.27
2024-05-09T02:12:44.871Z,1023.31
2024-05-09T02:13:44.689Z,1023.30
2024-05-09T02:14:44.634Z,1023.31
2024-05-09T02:15:44.813Z,1023.33
2024-05-09T02:16:44.770Z,1023.34
2024-05-09T02:17:45.032Z,1023.33
2024-05-09T02:18:44.913Z,1023.34
2024-05-09T02:19:45.112Z,1023.38
2024-05-09T02:20:44.931Z,1023.36
2024-05-09T02:21:44.846Z,1023.35
2024-05-09T02:22:44.926Z,1023.32
2024-05-09T02:23:44.969Z,1023.32
2024-05-09T02:24:45.550Z,1023.33
2024-05-09T02:25:44.961Z,1023.32
2024-05-09T02:26:45.263Z,1023.30
2024-05-09T02:27:45.030Z,1023.31
2024-05-09T02:28:45.071Z,1023.35
2024-05-09T02:29:45.112Z,1023.32
2024-05-09T02:30:45.124Z,1023.35
2024-05-09T02:31:45.372Z,1023.36
2024-05-09T02:32:45.733Z,1023.39
2024-05-09T02:33:45.425Z,1023.37
2024-05-09T02:34:45.305Z,1023.38
2024-05-09T02:35:45.320Z,1023.38
2024-05-09T02:36:45.304Z,1023.39
2024-05-09T02:37:45.844Z,1023.36
2024-05-09T02:38:45.639Z,1023.37
2024-05-09T02:39:45.504Z,1023.37
2024-05-09T02:40:46.036Z,1023.34
2024-05-09T02:41:45.464Z,1023.31
2024-05-09T02:42:45.483Z,1023.32
2024-05-09T02:43:45.695Z,1023.31
2024-05-09T02:44:45.800Z,1023.31
2024-05-09T02:45:45.585Z,1023.36
2024-05-09T02:46:45.753Z,1023.33
2024-05-09T02:47:45.866Z,1023.34
2024-05-09T02:48:45.904Z,1023.32
2024-05-09T02:49:45.736Z,1023.33
2024-05-09T02:50:45.803Z,1023.35
2024-05-09T02:51:46.012Z,1023.33
2024-05-09T02:53:46.107Z,1023.32
2024-05-09T02:54:45.869Z,1023.36
2024-05-09T02:55:45.910Z,1023.35
2024-05-09T02:56:45.918Z,1023.31
2024-05-09T02:57:45.957Z,1023.32
2024-05-09T02:58:46.387Z,1023.33
2024-05-09T02:59:46.037Z,1023.31
2024-05-09T03:00:46.079Z,1023.32
2024-05-09T03:01:46.185Z,1023.32
2024-05-09T03:02:46.192Z,1023.28
2024-05-09T03:15:10.212Z,1023.29
2024-05-09T03:16:10.226Z,1023.28
2024-05-09T03:17:10.771Z,1023.29
2024-05-09T03:19:10.874Z,1023.26
2024-05-09T03:21:10.532Z,1023.23
2024-05-09T03:22:10.397Z,1023.25
2024-05-09T03:23:10.654Z,1023.27
2024-05-09T03:24:10.464Z,1023.23
2024-05-09T03:25:10.790Z,1023.21
2024-05-09T03:26:10.847Z,1023.24
2024-05-09T03:27:10.562Z,1023.27
2024-05-09T03:28:10.624Z,1023.28
2024-05-09T03:29:10.926Z,1023.28
2024-05-09T03:30:15.479Z,1023.26
2024-05-09T03:31:10.678Z,1023.26
2024-05-09T03:32:10.826Z,1023.28
2024-05-09T03:33:11.006Z,1023.28
2024-05-09T03:34:10.839Z,1023.29
2024-05-09T03:35:10.823Z,1023.26
2024-05-09T03:36:11.480Z,1023.24
2024-05-09T03:39:10.917Z,1023.27
2024-05-09T03:40:17.696Z,1023.26
2024-05-09T03:41:10.995Z,1023.28
2024-05-09T03:42:11.030Z,1023.25
2024-05-09T03:43:11.041Z,1023.24
2024-05-09T03:45:11.090Z,1023.25
2024-05-09T03:46:11.127Z,1023.22
2024-05-09T03:47:11.206Z,1023.26
2024-05-09T03:48:11.595Z,1023.22
2024-05-09T03:49:11.298Z,1023.24
2024-05-09T03:50:18.322Z,1023.21
2024-05-09T03:51:11.320Z,1023.25
2024-05-09T03:52:11.635Z,1023.24
2024-05-09T03:53:11.707Z,1023.21
2024-05-09T03:54:11.369Z,1023.28
2024-05-09T03:55:11.411Z,1023.28
2024-05-09T03:56:11.473Z,1023.26
2024-05-09T03:57:11.455Z,1023.25
2024-05-09T03:58:11.499Z,1023.24
2024-05-09T03:59:11.864Z,1023.25
2024-05-09T04:01:11.644Z,1023.23
2024-05-09T04:02:11.682Z,1023.24
2024-05-09T04:03:13.153Z,1023.19
2024-05-09T04:05:11.739Z,1023.23
2024-05-09T04:06:12.030Z,1023.25
2024-05-09T04:07:11.773Z,1023.28
2024-05-09T04:08:11.974Z,1023.28
2024-05-09T04:09:11.817Z,1023.28
2024-05-09T04:10:20.943Z,1023.25
2024-05-09T04:11:11.965Z,1023.28
2024-05-09T04:12:12.006Z,1023.25
2024-05-09T04:13:12.240Z,1023.30
2024-05-09T04:14:12.033Z,1023.28
2024-05-09T04:15:13.638Z,1023.28
2024-05-09T04:16:12.055Z,1023.30
2024-05-09T04:17:12.087Z,1023.29
2024-05-09T04:18:12.187Z,1023.33
2024-05-09T04:19:12.209Z,1023.29
2024-05-09T04:20:21.353Z,1023.33
2024-05-09T04:21:12.552Z,1023.27
2024-05-09T04:22:12.213Z,1023.31
2024-05-09T04:23:12.830Z,1023.32
2024-05-09T04:24:12.272Z,1023.33
2024-05-09T04:25:12.305Z,1023.34
2024-05-09T04:26:12.699Z,1023.37
2024-05-09T04:27:12.367Z,1023.36
2024-05-09T04:28:12.397Z,1023.36
2024-05-09T04:29:12.511Z,1023.38
2024-05-09T04:30:21.576Z,1023.36
2024-05-09T04:31:12.487Z,1023.36
2024-05-09T04:32:12.752Z,1023.38
2024-05-09T04:33:14.350Z,1023.37
2024-05-09T04:34:13.058Z,1023.35
2024-05-09T04:35:12.773Z,1023.37
2024-05-09T04:36:12.793Z,1023.34
2024-05-09T04:37:12.818Z,1023.36
2024-05-09T04:38:13.617Z,1023.37
2024-05-09T04:39:12.807Z,1023.37
2024-05-09T04:40:24.042Z,1023.37
2024-05-09T04:41:12.860Z,1023.38
2024-05-09T04:42:12.825Z,1023.36
2024-05-09T04:43:12.857Z,1023.37
2024-05-09T04:44:12.999Z,1023.38
2024-05-09T04:45:12.915Z,1023.37
2024-05-09T04:46:13.196Z,1023.40
2024-05-09T04:47:13.194Z,1023.37
2024-05-09T04:48:13.340Z,1023.37
2024-05-09T04:49:13.249Z,1023.39
2024-05-09T04:50:21.154Z,1023.40
2024-05-09T04:51:13.164Z,1023.39
2024-05-09T04:52:13.371Z,1023.40
2024-05-09T04:53:13.183Z,1023.42
2024-05-09T04:54:25.730Z,1023.42
2024-05-09T04:55:13.213Z,1023.41
2024-05-09T04:56:13.372Z,1023.40
2024-05-09T04:57:13.376Z,1023.39
2024-05-09T04:58:13.305Z,1023.40
2024-05-09T04:59:13.357Z,1023.42
2024-05-09T05:00:15.004Z,1023.41
2024-05-09T05:01:13.410Z,1023.39
2024-05-09T05:02:13.554Z,1023.40
2024-05-09T05:03:15.674Z,1023.42
2024-05-09T05:04:13.837Z,1023.42
2024-05-09T05:05:13.593Z,1023.46
2024-05-09T05:06:13.546Z,1023.44
2024-05-09T05:07:13.596Z,1023.45
2024-05-09T05:08:14.093Z,1023.42
2024-05-09T05:10:21.412Z,1023.45
2024-05-09T05:11:13.879Z,1023.46
2024-05-09T05:12:13.851Z,1023.44
2024-05-09T05:13:13.767Z,1023.50
2024-05-09T05:14:13.860Z,1023.51
2024-05-09T05:15:13.818Z,1023.51
2024-05-09T05:16:13.848Z,1023.47
2024-05-09T05:17:14.315Z,1023.51
2024-05-09T05:18:14.025Z,1023.52
2024-05-09T05:19:16.959Z,1023.53
2024-05-09T05:20:17.929Z,1023.52
2024-05-09T05:21:14.038Z,1023.49
2024-05-09T05:22:14.033Z,1023.50
2024-05-09T05:23:14.484Z,1023.50
2024-05-09T05:24:14.341Z,1023.52
2024-05-09T05:25:14.119Z,1023.52
2024-05-09T05:26:14.230Z,1023.53
2024-05-09T05:27:14.182Z,1023.57
2024-05-09T05:28:14.217Z,1023.53
2024-05-09T05:29:15.959Z,1023.58
2024-05-09T05:30:21.195Z,1023.57
2024-05-09T05:31:14.323Z,1023.54
2024-05-09T05:32:14.517Z,1023.57
2024-05-09T05:33:14.718Z,1023.56
2024-05-09T05:34:14.404Z,1023.54
2024-05-09T05:35:14.573Z,1023.56
2024-05-09T05:36:14.467Z,1023.57
2024-05-09T05:37:14.789Z,1023.55
2024-05-09T05:38:14.621Z,1023.58
2024-05-09T05:39:14.568Z,1023.60
2024-05-09T05:40:20.911Z,1023.60
2024-05-09T05:41:14.699Z,1023.66
2024-05-09T05:42:14.634Z,1023.65
2024-05-09T05:43:14.921Z,1023.65
2024-05-09T05:44:15.201Z,1023.66
2024-05-09T05:45:14.741Z,1023.64
2024-05-09T05:46:14.759Z,1023.66
2024-05-09T05:48:14.933Z,1023.66
2024-05-09T05:49:15.022Z,1023.73
2024-05-09T05:50:24.422Z,1023.77
2024-05-09T05:51:14.982Z,1023.79
2024-05-09T05:52:14.947Z,1023.78
2024-05-09T05:53:15.096Z,1023.83
2024-05-09T05:54:15.015Z,1023.84
2024-05-09T05:55:15.089Z,1023.83
2024-05-09T05:56:15.411Z,1023.82
2024-05-09T05:57:15.099Z,1023.84
2024-05-09T05:58:15.218Z,1023.83
2024-05-09T05:59:15.697Z,1023.83
2024-05-09T06:00:25.310Z,1023.80
2024-05-09T06:01:15.255Z,1023.78
2024-05-09T06:02:15.468Z,1023.77
2024-05-09T06:03:15.669Z,1023.77
2024-05-09T06:04:15.386Z,1023.78
2024-05-09T06:05:15.381Z,1023.81
2024-05-09T06:06:15.380Z,1023.78
2024-05-09T06:07:15.407Z,1023.81
2024-05-09T06:08:15.540Z,1023.80
2024-05-09T06:09:15.485Z,1023.79
2024-05-09T06:10:21.348Z,1023.76
2024-05-09T06:11:15.671Z,1023.78
2024-05-09T06:12:15.706Z,1023.76
2024-05-09T06:13:15.739Z,1023.78
2024-05-09T06:14:15.631Z,1023.76
2024-05-09T06:15:15.653Z,1023.78
2024-05-09T06:16:15.678Z,1023.75
2024-05-09T06:17:16.132Z,1023.71
2024-05-09T06:18:16.032Z,1023.71
2024-05-09T06:19:15.881Z,1023.70
2024-05-09T06:20:20.788Z,1023.70
2024-05-09T06:21:15.997Z,1023.66
2024-05-09T06:22:15.855Z,1023.67
2024-05-09T06:23:15.922Z,1023.60
2024-05-09T06:24:16.171Z,1023.63
2024-05-09T06:25:15.961Z,1023.62
2024-05-09T06:26:16.112Z,1023.59
2024-05-09T06:27:16.027Z,1023.63
2024-05-09T06:28:16.041Z,1023.66
2024-05-09T06:29:16.169Z,1023.65
2024-05-09T06:30:25.700Z,1023.66
2024-05-09T06:31:17.834Z,1023.66
2024-05-09T06:32:17.828Z,1023.64
2024-05-09T06:33:17.424Z,1023.69
2024-05-09T06:34:17.247Z,1023.67
2024-05-09T06:35:17.376Z,1023.67
2024-05-09T06:36:16.288Z,1023.67
2024-05-09T06:37:16.311Z,1023.66
2024-05-09T06:38:16.701Z,1023.66
2024-05-09T06:39:16.384Z,1023.69
2024-05-09T06:40:21.244Z,1023.70
2024-05-09T06:41:16.547Z,1023.71
2024-05-09T06:42:16.467Z,1023.73
2024-05-09T06:43:18.646Z,1023.73
2024-05-09T06:44:16.595Z,1023.76
2024-05-09T06:45:16.875Z,1023.75
2024-05-09T06:46:16.589Z,1023.75
2024-05-09T06:47:16.716Z,1023.77
2024-05-09T06:48:16.867Z,1023.79
2024-05-09T06:50:23.786Z,1023.79
2024-05-09T06:52:17.080Z,1023.78
2024-05-09T06:53:16.976Z,1023.72
2024-05-09T06:54:16.833Z,1023.72
2024-05-09T06:55:16.862Z,1023.71
2024-05-09T06:56:16.975Z,1023.73
2024-05-09T06:57:16.926Z,1023.72
2024-05-09T06:58:16.986Z,1023.68
2024-05-09T06:59:17.275Z,1023.72
2024-05-09T07:00:23.092Z,1023.77
2024-05-09T07:01:17.218Z,1023.77
2024-05-09T07:02:17.148Z,1023.81
2024-05-09T07:03:18.772Z,1023.82
2024-05-09T07:04:17.326Z,1023.83
2024-05-09T07:05:17.305Z,1023.85
2024-05-09T07:06:17.532Z,1023.85
2024-05-09T07:07:17.233Z,1023.86
2024-05-09T07:08:17.384Z,1023.87
2024-05-09T07:09:17.326Z,1023.85
2024-05-09T07:10:22.181Z,1023.84
2024-05-09T07:11:17.416Z,1023.85
2024-05-09T07:12:17.617Z,1023.85
2024-05-09T07:13:17.680Z,1023.88
2024-05-09T07:15:17.494Z,1023.85
2024-05-09T07:16:17.512Z,1023.87
2024-05-09T07:17:17.642Z,1023.89
2024-05-09T07:18:18.870Z,1023.85
2024-05-09T07:19:17.782Z,1023.85
2024-05-09T07:20:23.685Z,1023.85
2024-05-09T07:21:17.804Z,1023.85
2024-05-09T07:22:17.740Z,1023.84
2024-05-09T07:23:17.886Z,1023.88
2024-05-09T07:24:17.752Z,1023.89
2024-05-09T07:25:17.792Z,1023.86
2024-05-09T07:26:18.319Z,1023.84
2024-05-09T07:27:17.848Z,1023.84
2024-05-09T07:28:17.951Z,1023.85
2024-05-09T07:29:17.993Z,1023.84
2024-05-09T07:30:23.561Z,1023.82
2024-05-09T07:31:17.982Z,1023.82
2024-05-09T07:32:18.425Z,1023.86
2024-05-09T07:33:18.375Z,1023.86
2024-05-09T07:34:18.163Z,1023.85
2024-05-09T07:35:18.219Z,1023.86
2024-05-09T07:36:18.120Z,1023.86
2024-05-09T07:37:18.160Z,1023.83
2024-05-09T07:38:18.563Z,1023.86
2024-05-09T07:39:18.214Z,1023.86
2024-05-09T07:40:28.200Z,1023.84
2024-05-09T07:41:18.338Z,1023.84
2024-05-09T07:42:18.303Z,1023.89
2024-05-09T07:43:18.473Z,1023.85
2024-05-09T07:44:18.431Z,1023.87
2024-05-09T07:45:40.229Z,1023.87
2024-05-09T07:47:14.413Z,1023.86
2024-05-09T07:48:29.034Z,1023.87
2024-05-09T07:51:31.677Z,1023.85
2024-05-09T07:52:49.256Z,1023.85
2024-05-09T07:53:38.346Z,1023.83
2024-05-09T07:54:18.988Z,1023.80
2024-05-09T07:56:20.129Z,1023.82
2024-05-09T07:57:18.845Z,1023.78
2024-05-09T07:58:18.812Z,1023.81
2024-05-09T07:59:19.097Z,1023.83
2024-05-09T08:00:23.730Z,1023.80
2024-05-09T08:01:19.168Z,1023.77
2024-05-09T08:02:19.092Z,1023.79
2024-05-09T08:03:19.016Z,1023.76
2024-05-09T08:04:19.045Z,1023.77
2024-05-09T08:05:19.189Z,1023.76
2024-05-09T08:06:19.435Z,1023.75
2024-05-09T08:07:19.138Z,1023.75
2024-05-09T08:08:19.138Z,1023.74
2024-05-09T08:09:21.166Z,1023.73
2024-05-09T08:10:24.450Z,1023.74
2024-05-09T08:11:19.268Z,1023.73
2024-05-09T08:12:19.248Z,1023.74
2024-05-09T08:13:19.620Z,1023.75
2024-05-09T08:14:19.303Z,1023.79
2024-05-09T08:15:19.401Z,1023.77
2024-05-09T08:16:19.561Z,1023.75
2024-05-09T08:17:19.434Z,1023.72
2024-05-09T08:18:19.505Z,1023.74
2024-05-09T08:19:19.551Z,1023.73
2024-05-09T08:20:26.975Z,1023.75
2024-05-09T08:21:19.545Z,1023.71
2024-05-09T08:22:19.612Z,1023.71
2024-05-09T08:23:19.701Z,1023.71
2024-05-09T08:24:19.615Z,1023.70
2024-05-09T08:25:19.739Z,1023.66
2024-05-09T08:26:19.970Z,1023.64
2024-05-09T08:27:19.709Z,1023.69
2024-05-09T08:28:19.889Z,1023.68
2024-05-09T08:29:19.770Z,1023.72
2024-05-09T08:30:25.296Z,1023.70
2024-05-09T08:31:19.916Z,1023.70
2024-05-09T08:32:19.894Z,1023.72
2024-05-09T08:33:20.395Z,1023.70
2024-05-09T08:34:20.226Z,1023.69
2024-05-09T08:35:19.966Z,1023.66
2024-05-09T08:36:19.977Z,1023.68
2024-05-09T08:37:23.388Z,1023.70
2024-05-09T08:38:20.041Z,1023.67
2024-05-09T08:39:20.073Z,1023.70
2024-05-09T08:40:28.115Z,1023.66
2024-05-09T08:41:20.141Z,1023.67
2024-05-09T08:42:20.172Z,1023.63
2024-05-09T08:43:20.509Z,1023.61
2024-05-09T08:44:20.252Z,1023.62
2024-05-09T08:45:20.267Z,1023.61
2024-05-09T08:46:20.546Z,1023.64
2024-05-09T08:47:20.355Z,1023.60
2024-05-09T08:48:20.531Z,1023.58
2024-05-09T08:49:20.603Z,1023.60
2024-05-09T08:50:29.214Z,1023.56
2024-05-09T08:51:20.459Z,1023.54
2024-05-09T08:52:20.492Z,1023.55
2024-05-09T08:53:20.832Z,1023.57
2024-05-09T08:54:20.545Z,1023.52
2024-05-09T08:55:20.796Z,1023.54
2024-05-09T08:56:20.613Z,1023.59
2024-05-09T08:57:20.640Z,1023.57
2024-05-09T08:58:20.866Z,1023.59
2024-05-09T08:59:20.955Z,1023.63
2024-05-09T09:00:29.604Z,1023.61
2024-05-09T09:01:20.873Z,1023.58
2024-05-09T09:02:21.071Z,1023.60
2024-05-09T09:03:20.894Z,1023.60
2024-05-09T09:05:21.342Z,1023.60
2024-05-09T09:06:20.931Z,1023.60
2024-05-09T09:08:20.992Z,1023.55
2024-05-09T09:09:21.013Z,1023.56
2024-05-09T09:10:28.837Z,1023.58
2024-05-09T09:11:21.134Z,1023.54
2024-05-09T09:13:21.524Z,1023.56
2024-05-09T09:14:21.179Z,1023.61
2024-05-09T09:15:21.203Z,1023.57
2024-05-09T09:16:21.307Z,1023.56
2024-05-09T09:17:21.281Z,1023.52
2024-05-09T09:18:21.359Z,1023.55
2024-05-09T09:19:21.586Z,1023.51
2024-05-09T09:20:26.513Z,1023.48
2024-05-09T09:21:21.396Z,1023.47
2024-05-09T09:22:21.464Z,1023.48
2024-05-09T09:23:21.460Z,1023.47
2024-05-09T09:24:21.510Z,1023.43
2024-05-09T09:25:21.525Z,1023.42
2024-05-09T09:26:21.547Z,1023.48
2024-05-09T09:27:21.617Z,1023.44
2024-05-09T09:28:21.622Z,1023.42
2024-05-09T09:29:21.641Z,1023.43
2024-05-09T09:30:34.032Z,1023.42
2024-05-09T09:31:22.028Z,1023.42
2024-05-09T09:32:21.777Z,1023.41
2024-05-09T09:33:21.899Z,1023.43
2024-05-09T09:34:21.927Z,1023.37
2024-05-09T09:35:21.854Z,1023.34
2024-05-09T09:36:21.865Z,1023.38
2024-05-09T09:37:21.900Z,1023.35
2024-05-09T09:38:22.204Z,1023.37
2024-05-09T09:39:21.965Z,1023.37
2024-05-09T09:40:22.406Z,1023.40
2024-05-09T09:42:22.068Z,1023.41
2024-05-09T09:43:22.710Z,1023.41
2024-05-09T09:44:22.372Z,1023.41
2024-05-09T09:45:22.221Z,1023.39
2024-05-09T09:46:22.240Z,1023.38
2024-05-09T09:47:22.297Z,1023.39
2024-05-09T09:48:22.988Z,1023.42
2024-05-09T09:49:22.317Z,1023.40
2024-05-09T09:50:27.748Z,1023.37
2024-05-09T09:51:22.370Z,1023.37
2024-05-09T09:52:22.482Z,1023.40
2024-05-09T09:53:22.399Z,1023.36
2024-05-09T09:54:22.545Z,1023.36
2024-05-09T09:55:22.566Z,1023.33
2024-05-09T09:56:22.805Z,1023.32
2024-05-09T09:57:22.539Z,1023.32
2024-05-09T09:58:22.693Z,1023.27
2024-05-09T09:59:22.657Z,1023.25
2024-05-09T10:00:27.437Z,1023.29
2024-05-09T10:01:22.863Z,1023.27
2024-05-09T10:02:22.856Z,1023.25
2024-05-09T10:03:23.171Z,1023.29
2024-05-09T10:04:22.842Z,1023.25
2024-05-09T10:05:22.935Z,1023.25
2024-05-09T10:06:22.917Z,1023.23
2024-05-09T10:07:23.007Z,1023.23
2024-05-09T10:08:22.930Z,1023.21
2024-05-09T10:09:23.011Z,1023.23
2024-05-09T10:10:30.195Z,1023.22
2024-05-09T10:11:23.146Z,1023.26
2024-05-09T10:12:23.065Z,1023.22
2024-05-09T10:13:23.160Z,1023.20
2024-05-09T10:14:23.128Z,1023.15
2024-05-09T10:15:23.132Z,1023.15
2024-05-09T10:16:23.519Z,1023.14
2024-05-09T10:17:23.210Z,1023.18
2024-05-09T10:18:23.550Z,1023.16
2024-05-09T10:19:23.347Z,1023.16
2024-05-09T10:20:28.039Z,1023.16
2024-05-09T10:21:23.310Z,1023.13
2024-05-09T10:23:23.636Z,1023.12
2024-05-09T10:24:23.402Z,1023.08
2024-05-09T10:25:23.673Z,1023.06
2024-05-09T10:26:23.465Z,1023.08
2024-05-09T10:27:23.496Z,1023.05
2024-05-09T10:28:23.575Z,1023.01
2024-05-09T10:29:23.563Z,1023.06
2024-05-09T10:30:29.644Z,1023.04
2024-05-09T10:31:23.649Z,1023.05
2024-05-09T10:32:23.692Z,1023.07
2024-05-09T10:33:23.734Z,1023.09
2024-05-09T10:34:24.112Z,1023.00
2024-05-09T10:35:23.745Z,1023.02
2024-05-09T10:36:23.808Z,1023.05
2024-05-09T10:37:24.141Z,1023.02
2024-05-09T10:38:23.895Z,1023.04
2024-05-09T10:39:23.910Z,1023.00
2024-05-09T10:40:29.349Z,1023.01
2024-05-09T10:41:24.016Z,1023.03
2024-05-09T10:42:24.073Z,1022.96
2024-05-09T10:43:24.170Z,1022.99
2024-05-09T10:44:24.303Z,1022.97
2024-05-09T10:45:24.091Z,1022.97
2024-05-09T10:46:24.139Z,1022.96
2024-05-09T10:47:24.877Z,1022.99
2024-05-09T10:48:25.739Z,1022.96
2024-05-09T10:49:25.753Z,1022.97
2024-05-09T10:50:28.779Z,1022.98
2024-05-09T10:51:25.198Z,1022.94
2024-05-09T10:52:24.346Z,1022.91
2024-05-09T10:53:24.329Z,1022.90
2024-05-09T10:54:24.363Z,1022.89
2024-05-09T10:55:24.429Z,1022.88
2024-05-09T10:56:24.424Z,1022.91
2024-05-09T10:57:24.455Z,1022.87
2024-05-09T10:58:24.779Z,1022.87
2024-05-09T10:59:24.516Z,1022.89
2024-05-09T11:01:24.714Z,1022.86
2024-05-09T11:02:24.835Z,1022.81
2024-05-09T11:03:24.720Z,1022.84
2024-05-09T11:04:25.038Z,1022.80
2024-05-09T11:05:24.861Z,1022.82
2024-05-09T11:06:24.751Z,1022.80
2024-05-09T11:07:24.885Z,1022.78
2024-05-09T11:08:24.815Z,1022.83
2024-05-09T11:09:24.851Z,1022.74
2024-05-09T11:10:31.747Z,1022.75
2024-05-09T11:11:24.973Z,1022.73
2024-05-09T11:12:25.082Z,1022.78
2024-05-09T11:13:25.011Z,1022.76
2024-05-09T11:14:25.019Z,1022.72
2024-05-09T11:15:25.051Z,1022.67
2024-05-09T11:16:25.416Z,1022.69
2024-05-09T11:17:25.280Z,1022.66
2024-05-09T11:18:26.624Z,1022.64
2024-05-09T14:26:19.394Z,1021.38
2024-05-09T14:27:19.381Z,1021.36
2024-05-09T14:28:19.702Z,1021.36
2024-05-09T14:29:19.446Z,1021.38
2024-05-09T14:30:26.296Z,1021.38
2024-05-09T14:31:19.558Z,1021.34
2024-05-09T14:32:20.080Z,1021.33
2024-05-09T14:33:19.666Z,1021.35
2024-05-09T14:34:19.850Z,1021.28
2024-05-09T14:35:19.734Z,1021.27
2024-05-09T14:36:19.817Z,1021.29
2024-05-09T14:37:19.756Z,1021.32
2024-05-09T14:38:19.985Z,1021.33
2024-05-09T14:39:19.751Z,1021.31
2024-05-09T14:41:19.833Z,1021.34
2024-05-09T14:42:19.893Z,1021.33
2024-05-09T14:43:19.954Z,1021.34
2024-05-09T14:44:19.923Z,1021.34
2024-05-09T14:45:20.261Z,1021.37
2024-05-09T14:46:20.159Z,1021.37
2024-05-09T14:47:20.161Z,1021.33
2024-05-09T14:48:20.262Z,1021.35
2024-05-09T14:49:20.351Z,1021.34
2024-05-09T14:50:27.788Z,1021.32
2024-05-09T14:51:20.148Z,1021.29
2024-05-09T14:52:20.511Z,1021.32
2024-05-09T14:53:20.232Z,1021.31
2024-05-09T14:54:20.270Z,1021.42
2024-05-09T14:55:20.325Z,1021.30
2024-05-09T14:56:20.331Z,1021.29
2024-05-09T14:57:20.403Z,1021.28
2024-05-09T14:58:20.735Z,1021.24
2024-05-09T14:59:20.673Z,1021.28
2024-05-09T15:00:26.065Z,1021.21
2024-05-09T15:01:20.762Z,1021.25
2024-05-09T15:02:20.640Z,1021.25
2024-05-09T15:03:21.696Z,1021.27
2024-05-09T15:04:20.676Z,1021.25
2024-05-09T15:05:20.675Z,1021.19
2024-05-09T15:06:21.020Z,1021.20
2024-05-09T15:07:20.745Z,1021.18
2024-05-09T15:08:20.740Z,1021.11
2024-05-09T15:09:20.761Z,1021.12
2024-05-09T15:10:27.311Z,1021.08
2024-05-09T15:11:20.889Z,1021.06
2024-05-09T15:12:20.888Z,1020.94
2024-05-09T15:13:21.513Z,1020.91
2024-05-09T15:14:20.959Z,1020.91
2024-05-09T15:15:21.016Z,1020.86
2024-05-09T15:16:21.117Z,1020.82
2024-05-09T15:17:21.044Z,1020.83
2024-05-09T15:18:21.274Z,1020.84
2024-05-09T15:19:21.392Z,1020.82
2024-05-09T15:20:30.366Z,1020.80
2024-05-09T15:21:21.235Z,1020.81
2024-05-09T15:22:21.273Z,1020.77
2024-05-09T15:23:21.260Z,1020.78
2024-05-09T15:24:21.317Z,1020.85
2024-05-09T15:25:21.485Z,1020.83
2024-05-09T15:26:21.391Z,1020.81
2024-05-09T15:27:21.735Z,1020.84
2024-05-09T15:28:21.711Z,1020.87
2024-05-09T15:29:21.463Z,1020.86
2024-05-09T15:30:29.914Z,1020.90
2024-05-09T15:31:21.557Z,1020.82
2024-05-09T15:32:21.610Z,1020.78
2024-05-09T15:33:21.726Z,1020.86
2024-05-09T15:34:22.040Z,1020.92
2024-05-09T15:35:21.674Z,1020.92
2024-05-09T15:36:21.716Z,1020.91
2024-05-09T15:37:21.896Z,1020.89
2024-05-09T15:38:21.786Z,1020.91
2024-05-09T15:39:21.813Z,1020.91
2024-05-09T15:40:30.898Z,1020.91
2024-05-09T15:41:22.151Z,1020.88
2024-05-09T15:42:21.913Z,1020.88
2024-05-09T15:43:22.098Z,1020.80
2024-05-09T15:44:21.982Z,1020.78
2024-05-09T15:45:22.024Z,1020.72
2024-05-09T15:46:22.279Z,1020.70
2024-05-09T15:48:22.434Z,1020.85
2024-05-09T15:49:22.390Z,1020.86
2024-05-09T15:50:32.009Z,1020.85
2024-05-09T15:51:22.397Z,1020.71
2024-05-09T15:52:22.275Z,1020.72
2024-05-09T15:53:22.303Z,1020.69
2024-05-09T15:54:23.660Z,1020.70
2024-05-09T15:55:22.445Z,1020.67
2024-05-09T15:56:22.815Z,1020.60
2024-05-09T15:57:22.470Z,1020.52
2024-05-09T15:58:22.558Z,1020.44
2024-05-09T15:59:22.517Z,1020.38
2024-05-09T16:00:29.092Z,1020.40
2024-05-09T16:01:22.724Z,1020.44